createdAt,value
2022-08-12T00:00:18.485Z,99172.16
2022-08-12T00:03:23.769Z,99149.13
2022-08-12T00:06:30.137Z,99152.69
2022-08-12T00:09:35.143Z,99141.44
2022-08-12T00:12:41.029Z,99146.94
2022-08-12T00:15:46.200Z,99178.00
2022-08-12T00:18:51.087Z,99148.00
2022-08-12T00:21:56.693Z,99142.88
2022-08-12T00:25:02.070Z,99161.94
2022-08-12T00:28:08.122Z,99152.63
2022-08-12T00:31:13.421Z,99178.59
2022-08-12T00:34:18.757Z,99182.88
2022-08-12T00:37:25.954Z,99177.56
2022-08-12T00:40:33.438Z,99152.69
2022-08-12T00:43:20.919Z,99151.91
2022-08-12T00:46:25.839Z,99152.81
2022-08-12T00:49:12.650Z,99151.09
2022-08-12T00:52:07.388Z,99180.56
2022-08-12T00:54:59.144Z,99180.59
2022-08-12T00:57:49.266Z,99160.91
2022-08-12T01:00:35.758Z,99167.91
2022-08-12T01:03:22.130Z,99144.84
2022-08-12T01:06:27.656Z,99162.81
2022-08-12T01:09:33.160Z,99176.69
2022-08-12T01:12:20.316Z,99182.81
2022-08-12T01:15:07.526Z,99152.78
2022-08-12T01:17:53.955Z,99160.50
2022-08-12T01:20:56.419Z,99183.75
2022-08-12T01:24:31.001Z,99182.84
2022-08-12T01:27:15.231Z,99189.81
2022-08-12T01:30:07.788Z,99120.00
2022-08-12T01:32:56.667Z,99152.88
2022-08-12T01:36:07.973Z,99151.16
2022-08-12T01:38:59.256Z,99163.28
2022-08-12T01:41:53.786Z,99176.19
2022-08-12T01:44:40.384Z,99163.44
2022-08-12T01:47:52.024Z,99172.06
2022-08-12T01:50:50.701Z,99173.91
2022-08-12T01:53:58.663Z,99176.56
2022-08-12T01:56:51.318Z,99175.72
2022-08-12T01:59:59.425Z,99168.81
2022-08-12T02:03:03.938Z,99166.38
2022-08-12T02:06:20.876Z,99127.63
2022-08-12T02:09:29.845Z,99148.34
2022-08-12T02:12:28.596Z,99164.91
2022-08-12T02:15:51.962Z,99159.75
2022-08-12T02:18:49.850Z,99164.97
2022-08-12T02:21:46.445Z,99155.47
2022-08-12T02:24:37.397Z,99135.69
2022-08-12T02:27:27.614Z,99143.50
2022-08-12T02:30:20.396Z,99143.50
2022-08-12T02:33:06.971Z,99160.75
2022-08-12T02:35:54.413Z,99141.06
2022-08-12T02:38:42.755Z,99169.53
2022-08-12T02:41:32.439Z,99159.19
2022-08-12T02:44:21.618Z,99134.28
2022-08-12T02:47:59.805Z,99140.31
2022-08-12T02:50:20.388Z,99144.69
2022-08-12T02:53:07.789Z,99136.94
2022-08-12T02:55:54.669Z,99141.28
2022-08-12T02:58:45.198Z,99160.25
2022-08-12T03:01:34.325Z,99157.72
2022-08-12T03:04:32.846Z,99143.16
2022-08-12T03:07:36.531Z,99158.69
2022-08-12T03:10:41.465Z,99158.75
2022-08-12T03:13:36.501Z,99136.38
2022-08-12T03:16:23.822Z,99128.56
2022-08-12T03:19:10.542Z,99114.88
2022-08-12T03:22:12.988Z,99132.06
2022-08-12T03:25:03.746Z,99160.56
2022-08-12T03:27:55.841Z,99147.66
2022-08-12T03:30:43.150Z,99151.16
2022-08-12T03:33:34.575Z,99124.44
2022-08-12T03:36:21.553Z,99159.78
2022-08-12T03:39:35.985Z,99165.00
2022-08-12T03:42:40.430Z,99130.56
2022-08-12T03:45:52.024Z,99130.63
2022-08-12T03:48:59.774Z,99132.38
2022-08-12T03:52:05.666Z,99166.03
2022-08-12T03:55:10.511Z,99139.38
2022-08-12T03:58:15.770Z,99160.88
2022-08-12T04:01:02.201Z,99158.34
2022-08-12T04:03:52.477Z,99140.25
2022-08-12T04:06:46.585Z,99171.34
2022-08-12T04:09:33.269Z,99159.28
2022-08-12T04:12:38.631Z,99123.09
2022-08-12T04:15:27.786Z,99140.28
2022-08-12T04:18:18.717Z,99173.94
2022-08-12T04:21:09.936Z,99173.09
2022-08-12T04:23:58.221Z,99168.75
2022-08-12T04:26:44.490Z,99167.88
2022-08-12T04:30:29.654Z,99142.88
2022-08-12T04:32:44.170Z,99175.66
2022-08-12T04:35:31.617Z,99151.50
2022-08-12T04:38:19.807Z,99167.03
2022-08-12T04:41:06.581Z,99145.44
2022-08-12T04:44:02.476Z,99171.28
2022-08-12T04:46:49.210Z,99123.84
2022-08-12T04:49:36.841Z,99119.50
2022-08-12T04:52:23.471Z,99155.63
2022-08-12T04:55:13.979Z,99152.06
2022-08-12T04:58:00.556Z,99158.75
2022-08-12T05:00:47.351Z,99174.00
2022-08-12T05:03:46.241Z,99178.84
2022-08-12T05:06:33.291Z,99137.84
2022-08-12T05:09:19.711Z,99160.34
2022-08-12T05:12:09.084Z,99174.44
2022-08-12T05:14:55.894Z,99167.53
2022-08-12T05:17:43.398Z,99167.34
2022-08-12T05:20:30.757Z,99162.69
2022-08-12T05:23:19.337Z,99183.84
2022-08-12T05:26:06.205Z,99168.53
2022-08-12T05:28:54.063Z,99147.88
2022-08-12T05:31:47.266Z,99167.94
2022-08-12T05:34:34.639Z,99161.50
2022-08-12T05:37:22.619Z,99163.03
2022-08-12T05:40:11.446Z,99184.19
2022-08-12T05:42:58.283Z,99200.97
2022-08-12T05:45:45.852Z,99177.09
2022-08-12T05:48:32.479Z,99185.28
2022-08-12T05:51:18.968Z,99191.47
2022-08-12T05:54:05.488Z,99205.16
2022-08-12T05:56:52.148Z,99184.31
2022-08-12T05:59:39.771Z,99222.31
2022-08-12T06:02:26.322Z,99218.84
2022-08-12T06:05:12.881Z,99171.09
2022-08-12T06:08:03.071Z,99203.69
2022-08-12T06:10:50.383Z,99198.59
2022-08-12T06:13:54.319Z,99179.47
2022-08-12T06:16:41.302Z,99206.63
2022-08-12T06:20:22.754Z,99221.03
2022-08-12T06:22:36.043Z,99177.97
2022-08-12T06:25:22.886Z,99192.16
2022-08-12T06:28:21.173Z,99226.13
2022-08-12T06:31:24.872Z,99206.09
2022-08-12T06:35:25.826Z,99184.16
2022-08-12T06:37:20.770Z,99216.59
2022-08-12T06:40:13.651Z,99154.09
2022-08-12T06:43:00.154Z,99151.97
2022-08-12T06:45:49.443Z,99184.88
2022-08-12T06:48:37.365Z,99217.78
2022-08-12T06:51:27.963Z,99185.06
2022-08-12T06:54:14.333Z,99200.59
2022-08-12T06:58:08.247Z,99190.75
2022-08-12T07:00:32.443Z,99210.09
2022-08-12T07:03:27.658Z,99195.59
2022-08-12T07:06:14.122Z,99220.34
2022-08-12T07:09:00.473Z,99188.25
2022-08-12T07:11:50.901Z,99171.09
2022-08-12T07:14:40.682Z,99175.91
2022-08-12T07:17:37.278Z,99203.34
2022-08-12T07:20:50.192Z,99206.25
2022-08-12T07:23:33.908Z,99212.69
2022-08-12T07:26:21.367Z,99201.75
2022-08-12T07:29:13.087Z,99162.28
2022-08-12T07:31:59.722Z,99189.09
2022-08-12T07:34:47.290Z,99203.09
2022-08-12T07:37:35.064Z,99186.22
2022-08-12T07:40:21.874Z,99204.38
2022-08-12T07:43:08.115Z,99185.09
2022-08-12T07:45:55.311Z,99210.38
2022-08-12T07:48:48.875Z,99203.53
2022-08-12T07:51:35.470Z,99208.66
2022-08-12T07:54:22.303Z,99202.22
2022-08-12T07:57:11.664Z,99197.81
2022-08-12T08:00:04.644Z,99206.94
2022-08-12T08:02:54.419Z,99160.75
2022-08-12T08:05:46.142Z,99174.25
2022-08-12T08:08:32.677Z,99200.78
2022-08-12T08:11:37.682Z,99189.19
2022-08-12T08:14:28.398Z,99171.56
2022-08-12T08:17:15.152Z,99158.53
2022-08-12T08:20:03.779Z,99154.72
2022-08-12T08:22:50.816Z,99163.81
2022-08-12T08:25:38.823Z,99165.63
2022-08-12T08:28:25.250Z,99170.56
2022-08-12T08:31:13.446Z,99170.84
2022-08-12T08:34:40.115Z,99196.97
2022-08-12T08:37:10.753Z,99170.13
2022-08-12T08:40:22.030Z,99172.34
2022-08-12T08:43:08.454Z,99159.09
2022-08-12T08:45:56.596Z,99175.28
2022-08-12T08:48:43.070Z,99196.50
2022-08-12T08:51:29.322Z,99163.56
2022-08-12T08:54:16.303Z,99158.97
2022-08-12T08:57:04.254Z,99159.31
2022-08-12T08:59:51.806Z,99148.22
2022-08-12T09:02:38.342Z,99154.81
2022-08-12T09:05:25.697Z,99155.66
2022-08-12T09:08:22.448Z,99152.16
2022-08-12T09:12:06.673Z,99139.81
2022-08-12T09:14:38.966Z,99132.88
2022-08-12T09:17:25.960Z,99164.22
2022-08-12T09:20:16.302Z,99146.19
2022-08-12T09:26:12.217Z,99132.28
2022-08-12T09:29:00.414Z,99133.56
2022-08-12T09:32:07.460Z,99136.75
2022-08-12T09:34:54.810Z,99129.09
2022-08-12T09:37:58.330Z,99143.03
2022-08-12T09:41:01.980Z,99128.56
2022-08-12T09:44:38.406Z,99133.94
2022-08-12T09:47:20.360Z,99128.91
2022-08-12T09:50:20.454Z,99108.66
2022-08-12T09:53:15.443Z,99131.75
2022-08-12T09:56:39.655Z,99102.56
2022-08-12T09:59:09.807Z,99099.16
2022-08-12T10:02:41.856Z,99109.28
2022-08-12T10:05:03.525Z,99098.22
2022-08-12T10:07:50.116Z,99097.63
2022-08-12T10:10:58.559Z,99091.41
2022-08-12T10:13:46.207Z,99105.22
2022-08-12T10:16:39.452Z,99049.16
2022-08-12T10:19:36.076Z,99080.59
2022-08-12T10:22:49.138Z,99066.78
2022-08-12T10:26:33.754Z,99066.81
2022-08-12T10:29:27.747Z,99037.94
2022-08-12T10:32:45.239Z,99088.84
2022-08-12T10:35:31.315Z,99055.09
2022-08-12T10:38:35.029Z,99035.47
2022-08-12T10:41:57.431Z,99058.97
2022-08-12T10:44:46.761Z,99050.34
2022-08-12T10:48:19.095Z,99056.53
2022-08-12T10:51:00.906Z,99058.00
2022-08-12T10:53:49.111Z,99055.78
2022-08-12T10:56:41.696Z,99054.81
2022-08-12T10:59:39.156Z,99028.78
2022-08-12T11:04:28.359Z,99048.94
2022-08-12T11:07:08.564Z,99045.97
2022-08-12T11:08:51.546Z,99016.75
2022-08-12T11:12:34.645Z,99045.84
2022-08-12T11:14:51.203Z,99029.06
2022-08-12T11:17:51.890Z,99036.31
2022-08-12T11:20:40.604Z,99028.97
2022-08-12T11:23:36.492Z,99027.88
2022-08-12T11:26:23.962Z,99017.03
2022-08-12T11:29:22.132Z,99017.16
2022-08-12T11:32:09.519Z,99016.00
2022-08-12T11:34:59.435Z,99005.16
2022-08-12T11:37:58.727Z,99031.81
2022-08-12T11:40:45.864Z,99026.56
2022-08-12T11:43:33.458Z,99027.41
2022-08-12T11:46:38.405Z,99017.09
2022-08-12T11:49:30.593Z,99016.78
2022-08-12T11:52:53.954Z,98983.50
2022-08-12T11:55:27.574Z,98990.72
2022-08-12T11:59:38.215Z,98986.50
2022-08-12T12:02:02.131Z,98994.41
2022-08-12T12:04:29.646Z,98994.41
2022-08-12T12:07:16.438Z,98988.19
2022-08-12T12:10:03.490Z,98987.63
2022-08-12T12:12:50.756Z,98947.16
2022-08-12T12:15:41.305Z,98975.03
2022-08-12T12:18:31.070Z,98990.53
2022-08-12T12:21:17.922Z,98985.81
2022-08-12T12:24:24.425Z,98990.59
2022-08-12T12:27:13.710Z,98970.28
2022-08-12T12:30:18.662Z,98956.84
2022-08-12T12:33:18.117Z,98983.34
2022-08-12T12:36:20.755Z,98982.66
2022-08-12T12:39:10.825Z,98975.84
2022-08-12T12:42:44.289Z,98958.91
2022-08-12T12:45:19.443Z,98960.09
2022-08-12T12:48:11.289Z,98976.47
2022-08-12T12:51:49.158Z,98948.13
2022-08-12T12:54:28.892Z,98955.41
2022-08-12T12:57:15.481Z,98940.84
2022-08-12T13:00:16.562Z,98957.56
2022-08-12T13:03:02.840Z,98938.25
2022-08-12T13:05:53.737Z,98931.13
2022-08-12T13:08:40.705Z,98952.44
2022-08-12T13:11:41.375Z,98947.03
2022-08-12T13:14:31.267Z,98948.31
2022-08-12T13:17:21.276Z,98961.56
2022-08-12T13:20:07.962Z,98947.47
2022-08-12T13:22:54.481Z,98957.72
2022-08-12T13:25:42.693Z,98939.13
2022-08-12T13:28:31.015Z,98920.00
2022-08-12T13:31:17.307Z,98937.69
2022-08-12T13:34:32.690Z,98932.38
2022-08-12T13:37:11.554Z,98920.13
2022-08-12T13:39:58.309Z,98925.66
2022-08-12T13:42:48.710Z,98743.13
2022-08-12T13:45:37.753Z,98925.50
2022-08-12T13:48:24.049Z,98932.47
2022-08-12T13:51:24.164Z,98954.25
2022-08-12T13:54:13.955Z,98924.47
2022-08-12T13:57:00.722Z,98939.19
2022-08-12T13:59:48.685Z,98923.50
2022-08-12T14:02:41.634Z,98907.38
2022-08-12T14:05:37.861Z,98927.81
2022-08-12T14:08:25.235Z,98936.44
2022-08-12T14:11:12.367Z,98883.59
2022-08-12T14:14:03.855Z,98878.53
2022-08-12T14:17:02.376Z,98926.09
2022-08-12T14:20:10.675Z,98916.28
2022-08-12T14:22:59.869Z,98926.75
2022-08-12T14:26:11.758Z,98910.81
2022-08-12T14:29:02.015Z,98903.75
2022-08-12T14:31:53.225Z,98889.31
2022-08-12T14:34:40.153Z,98907.06
2022-08-12T14:37:57.475Z,98908.50
2022-08-12T14:40:40.471Z,98894.06
2022-08-12T14:43:44.398Z,98909.41
2022-08-12T14:46:46.862Z,98870.44
2022-08-12T14:50:33.461Z,98873.50
2022-08-12T14:54:33.681Z,98875.09
2022-08-12T14:59:20.379Z,98880.06
2022-08-12T15:02:10.393Z,98902.75
2022-08-12T15:04:59.612Z,98886.84
2022-08-12T15:07:50.881Z,98889.56
2022-08-12T15:10:46.197Z,98900.25
2022-08-12T15:13:45.627Z,98909.50
2022-08-12T15:16:32.911Z,98904.63
2022-08-12T15:20:11.460Z,98890.06
2022-08-12T15:22:37.912Z,98866.75
2022-08-12T15:25:30.268Z,98923.84
2022-08-12T15:28:35.521Z,98878.28
2022-08-12T15:31:28.291Z,98839.72
2022-08-12T15:34:30.851Z,98863.69
2022-08-12T15:37:18.307Z,98897.22
2022-08-12T15:40:05.994Z,98864.41
2022-08-12T15:42:54.544Z,98888.06
2022-08-12T15:45:46.889Z,98897.22
2022-08-12T15:48:34.213Z,98849.66
2022-08-12T15:51:58.774Z,98858.84
2022-08-12T15:54:42.379Z,98895.13
2022-08-12T15:57:33.313Z,98886.88
2022-08-12T16:00:32.736Z,98901.31
2022-08-12T16:03:28.597Z,98878.00
2022-08-12T16:09:56.157Z,98879.78
2022-08-12T16:12:54.685Z,98898.91
2022-08-12T16:15:42.489Z,98904.56
2022-08-12T16:18:48.901Z,98889.41
2022-08-12T16:21:52.947Z,98872.13
2022-08-12T16:24:43.461Z,98868.19
2022-08-12T16:27:31.601Z,98885.81
2022-08-12T16:30:31.412Z,98882.06
2022-08-12T16:33:19.710Z,98895.34
2022-08-12T16:36:11.402Z,98894.38
2022-08-12T16:39:01.664Z,98898.94
2022-08-12T16:41:48.322Z,98884.19
2022-08-12T16:44:37.377Z,98860.84
2022-08-12T16:47:27.205Z,98858.31
2022-08-12T16:50:14.420Z,98844.69
2022-08-12T16:53:02.438Z,98877.63
2022-08-12T16:55:54.989Z,98875.16
2022-08-12T16:58:41.914Z,98856.16
2022-08-12T17:01:34.342Z,98860.13
2022-08-12T17:04:24.336Z,98861.53
2022-08-12T17:07:20.929Z,98815.47
2022-08-12T17:10:11.994Z,98874.03
2022-08-12T17:12:58.428Z,98844.97
2022-08-12T17:15:57.528Z,98868.00
2022-08-12T17:18:57.207Z,98868.91
2022-08-12T17:21:51.855Z,98839.84
2022-08-12T17:24:54.480Z,98864.38
2022-08-12T17:27:46.265Z,98854.41
2022-08-12T17:30:35.186Z,98852.41
2022-08-12T17:33:24.841Z,98848.81
2022-08-12T17:36:11.463Z,98869.22
2022-08-12T17:38:57.757Z,98869.38
2022-08-12T17:41:56.352Z,98858.16
2022-08-12T17:44:44.015Z,98881.72
2022-08-12T17:47:31.230Z,98883.00
2022-08-12T17:50:23.205Z,98869.00
2022-08-12T17:53:19.338Z,98886.50
2022-08-12T17:56:07.581Z,98878.66
2022-08-12T17:58:58.161Z,98885.63
2022-08-12T18:01:46.236Z,98882.56
2022-08-12T18:04:35.838Z,98878.69
2022-08-12T18:07:23.435Z,98885.78
2022-08-12T18:10:11.730Z,98869.59
2022-08-12T18:13:01.181Z,98884.53
2022-08-12T18:16:04.403Z,98894.03
2022-08-12T18:18:57.175Z,98864.56
2022-08-12T18:22:01.136Z,98877.81
2022-08-12T18:24:53.606Z,98879.81
2022-08-12T18:27:50.880Z,98903.97
2022-08-12T18:31:02.269Z,98869.09
2022-08-12T18:33:50.142Z,98897.47
2022-08-12T18:36:37.806Z,98907.00
2022-08-12T18:39:48.696Z,98854.25
2022-08-12T18:42:35.267Z,98847.44
2022-08-12T18:45:24.785Z,98854.34
2022-08-12T18:48:23.402Z,98907.34
2022-08-12T18:51:21.739Z,98872.47
2022-08-12T18:54:21.695Z,98906.97
2022-08-12T18:57:16.800Z,98911.88
2022-08-12T19:00:07.972Z,98890.66
2022-08-12T19:02:54.628Z,98898.00
2022-08-12T19:05:53.070Z,98889.03
2022-08-12T19:08:47.155Z,98891.94
2022-08-12T19:11:53.130Z,98918.50
2022-08-12T19:14:43.476Z,98890.69
2022-08-12T19:17:56.703Z,98911.09
2022-08-12T19:20:39.234Z,98910.31
2022-08-12T19:23:33.772Z,98916.53
2022-08-12T19:26:26.949Z,98902.09
2022-08-12T19:29:18.107Z,98911.25
2022-08-12T19:32:09.535Z,98912.16
2022-08-12T19:36:06.546Z,98914.75
2022-08-12T19:38:06.610Z,98902.72
2022-08-12T19:40:56.468Z,98926.69
2022-08-12T19:44:00.315Z,98907.66
2022-08-12T19:46:53.494Z,98963.84
2022-08-12T19:49:55.150Z,98951.53
2022-08-12T19:52:41.801Z,98944.03
2022-08-12T19:55:29.455Z,98927.94
2022-08-12T19:58:22.806Z,98939.44
2022-08-12T20:01:11.549Z,98946.69
2022-08-12T20:03:59.286Z,98943.94
2022-08-12T20:06:51.529Z,98935.91
2022-08-12T20:09:41.992Z,98953.69
2022-08-12T20:12:32.918Z,98965.13
2022-08-12T20:15:26.265Z,98919.31
2022-08-12T20:18:44.373Z,98922.69
2022-08-12T20:21:40.427Z,98910.22
2022-08-12T20:24:31.190Z,98964.84
2022-08-12T20:27:28.680Z,98931.72
2022-08-12T20:30:52.604Z,98972.22
2022-08-12T20:33:50.615Z,98970.81
2022-08-12T20:36:41.116Z,98954.69
2022-08-12T20:39:52.420Z,98938.94
2022-08-12T20:42:36.068Z,98971.47
2022-08-12T20:45:22.602Z,98964.66
2022-08-12T20:48:12.511Z,98926.41
2022-08-12T20:51:04.290Z,98976.50
2022-08-12T20:53:58.434Z,98976.97
2022-08-12T20:56:45.831Z,98931.22
2022-08-12T20:59:33.066Z,98969.19
2022-08-12T21:02:24.664Z,98951.34
2022-08-12T21:06:12.668Z,98959.41
2022-08-12T21:09:01.002Z,98972.22
2022-08-12T21:11:50.558Z,99000.69
2022-08-12T21:14:39.979Z,98996.56
2022-08-12T21:18:09.025Z,98955.84
2022-08-12T21:20:55.727Z,98947.53
2022-08-12T21:23:42.111Z,98968.41
2022-08-12T21:26:28.647Z,98956.63
2022-08-12T21:29:16.355Z,98993.59
2022-08-12T21:32:38.042Z,98964.75
2022-08-12T21:35:11.675Z,98986.00
2022-08-12T21:38:05.778Z,99010.00
2022-08-12T21:40:53.537Z,98959.75
2022-08-12T21:43:45.107Z,98971.28
2022-08-12T21:46:38.464Z,98948.69
2022-08-12T21:49:53.434Z,98979.19
2022-08-12T21:52:34.615Z,98921.94
2022-08-12T21:55:35.438Z,98986.44
2022-08-12T21:58:22.260Z,98988.97
2022-08-12T22:01:20.052Z,98987.75
2022-08-12T22:04:28.997Z,99010.06
2022-08-12T22:07:18.751Z,98996.72
2022-08-12T22:10:06.598Z,99002.06
2022-08-12T22:13:01.078Z,98995.72
2022-08-12T22:15:52.513Z,98993.50
2022-08-12T22:18:50.305Z,98985.09
2022-08-12T22:21:48.109Z,98993.84
2022-08-12T22:24:35.201Z,98988.03
2022-08-12T22:27:33.192Z,98990.59
2022-08-12T22:30:39.278Z,99021.72
2022-08-12T22:33:25.517Z,99011.78
2022-08-12T22:36:20.567Z,99006.97
2022-08-12T22:39:11.519Z,98992.66
2022-08-12T22:42:31.510Z,98979.06
2022-08-12T22:45:48.612Z,99003.41
2022-08-12T22:48:50.295Z,98986.50
2022-08-12T22:51:57.719Z,98983.28
2022-08-12T22:54:59.972Z,98985.94
2022-08-12T22:57:54.944Z,98978.31
2022-08-12T23:00:49.339Z,98998.41
2022-08-12T23:03:49.580Z,98975.13
2022-08-12T23:06:36.979Z,98988.34
2022-08-12T23:09:26.472Z,99009.16
2022-08-12T23:12:47.194Z,98971.63
2022-08-12T23:15:37.134Z,98973.63
2022-08-12T23:18:24.041Z,98983.09
2022-08-12T23:21:19.874Z,98990.94
2022-08-12T23:24:10.904Z,98976.84
2022-08-12T23:27:18.333Z,99004.25
2022-08-12T23:30:19.215Z,99000.91
2022-08-12T23:33:59.668Z,98976.97
2022-08-12T23:36:31.611Z,99005.63
2022-08-12T23:40:13.111Z,98990.31
2022-08-12T23:42:32.875Z,99012.91
2022-08-12T23:45:30.627Z,98990.91
2022-08-12T23:48:23.255Z,99005.44
2022-08-12T23:51:26.605Z,99000.34
2022-08-12T23:54:33.140Z,99007.53
2022-08-12T23:57:26.532Z,99000.78
